sensor_id;sensor_type;location;lat;lon;timestamp;pressure;altitude;pressure_sealevel;temperature;humidity
47274;BME280;33007;49.082;19.306;2022-10-12T05:08:51;96975.16;;;8.55;100.00
47274;BME280;33007;49.082;19.306;2022-10-12T05:11:17;96972.53;;;8.52;100.00
47274;BME280;33007;49.082;19.306;2022-10-12T05:13:43;96987.41;;;8.60;100.00
47274;BME280;33007;49.082;19.306;2022-10-12T05:16:08;96978.53;;;8.59;100.00
47274;BME280;33007;49.082;19.306;2022-10-12T05:18:34;96973.97;;;8.56;100.00
47274;BME280;33007;49.082;19.306;2022-10-12T05:20:59;96973.31;;;8.52;100.00
47274;BME280;33007;49.082;19.306;2022-10-12T05:23:25;96969.84;;;8.52;100.00
47274;BME280;33007;49.082;19.306;2022-10-12T05:25:56;96988.72;;;8.68;100.00
47274;BME280;33007;49.082;19.306;2022-10-12T05:28:22;96977.34;;;8.60;100.00
47274;BME280;33007;49.082;19.306;2022-10-12T05:30:49;96979.84;;;8.68;100.00
47274;BME280;33007;49.082;19.306;2022-10-12T05:33:15;96985.41;;;8.77;100.00
47274;BME280;33007;49.082;19.306;2022-10-12T05:35:41;96991.03;;;8.82;100.00
47274;BME280;33007;49.082;19.306;2022-10-12T05:38:07;96968.59;;;8.69;100.00
47274;BME280;33007;49.082;19.306;2022-10-12T05:40:32;96984.44;;;8.83;100.00
47274;BME280;33007;49.082;19.306;2022-10-12T05:42:58;96990.19;;;8.85;100.00
47274;BME280;33007;49.082;19.306;2022-10-12T05:45:24;96975.22;;;8.81;100.00
47274;BME280;33007;49.082;19.306;2022-10-12T05:47:49;96980.56;;;8.84;100.00
47274;BME280;33007;49.082;19.306;2022-10-12T05:50:15;96968.94;;;8.84;100.00
47274;BME280;33007;49.082;19.306;2022-10-12T05:52:41;96983.19;;;9.01;100.00
47274;BME280;33007;49.082;19.306;2022-10-12T05:55:08;96972.31;;;8.88;100.00
47274;BME280;33007;49.082;19.306;2022-10-12T05:57:33;96976.53;;;8.89;100.00
47274;BME280;33007;49.082;19.306;2022-10-12T06:00:01;96991.84;;;8.96;100.00
47274;BME280;33007;49.082;19.306;2022-10-12T06:02:26;96982.50;;;8.97;100.00
47274;BME280;33007;49.082;19.306;2022-10-12T06:04:52;96983.28;;;9.10;100.00
47274;BME280;33007;49.082;19.306;2022-10-12T06:07:18;96994.16;;;9.23;100.00
47274;BME280;33007;49.082;19.306;2022-10-12T06:09:43;96976.47;;;9.18;100.00
47274;BME280;33007;49.082;19.306;2022-10-12T06:12:09;96977.13;;;9.22;100.00
47274;BME280;33007;49.082;19.306;2022-10-12T06:14:35;96997.06;;;9.28;100.00
47274;BME280;33007;49.082;19.306;2022-10-12T06:17:01;96971.91;;;9.15;100.00
47274;BME280;33007;49.082;19.306;2022-10-12T06:19:27;97001.28;;;9.29;100.00
47274;BME280;33007;49.082;19.306;2022-10-12T06:21:52;96998.59;;;9.29;100.00
47274;BME280;33007;49.082;19.306;2022-10-12T06:24:18;96993.06;;;9.33;100.00
47274;BME280;33007;49.082;19.306;2022-10-12T06:26:43;96991.22;;;9.30;100.00
47274;BME280;33007;49.082;19.306;2022-10-12T06:29:09;96975.25;;;9.19;100.00
47274;BME280;33007;49.082;19.306;2022-10-12T06:31:35;96990.44;;;9.29;100.00
47274;BME280;33007;49.082;19.306;2022-10-12T06:34:02;96995.44;;;9.31;100.00
47274;BME280;33007;49.082;19.306;2022-10-12T06:36:28;97000.53;;;9.41;100.00
47274;BME280;33007;49.082;19.306;2022-10-12T06:38:54;96992.72;;;9.31;100.00
47274;BME280;33007;49.082;19.306;2022-10-12T06:41:19;96966.38;;;9.18;100.00
47274;BME280;33007;49.082;19.306;2022-10-12T06:43:45;96994.47;;;9.50;100.00
47274;BME280;33007;49.082;19.306;2022-10-12T06:46:10;97014.72;;;9.58;100.00
47274;BME280;33007;49.082;19.306;2022-10-12T06:48:36;97013.13;;;9.61;100.00
47274;BME280;33007;49.082;19.306;2022-10-12T06:51:02;97008.00;;;9.63;100.00
47274;BME280;33007;49.082;19.306;2022-10-12T06:53:28;97011.38;;;9.67;100.00
47274;BME280;33007;49.082;19.306;2022-10-12T06:55:57;97016.13;;;9.63;100.00
47274;BME280;33007;49.082;19.306;2022-10-12T06:58:23;97005.84;;;9.58;100.00
47274;BME280;33007;49.082;19.306;2022-10-12T07:00:48;97014.19;;;9.63;100.00
47274;BME280;33007;49.082;19.306;2022-10-12T07:03:14;97020.81;;;9.75;100.00
47274;BME280;33007;49.082;19.306;2022-10-12T07:05:41;97016.78;;;9.80;100.00
47274;BME280;33007;49.082;19.306;2022-10-12T07:08:07;97001.16;;;9.71;100.00
47274;BME280;33007;49.082;19.306;2022-10-12T07:10:33;96971.47;;;9.55;100.00
47274;BME280;33007;49.082;19.306;2022-10-12T07:12:58;96972.75;;;9.63;100.00
47274;BME280;33007;49.082;19.306;2022-10-12T07:15:24;97027.19;;;9.94;100.00
47274;BME280;33007;49.082;19.306;2022-10-12T07:17:50;97003.09;;;9.83;100.00
47274;BME280;33007;49.082;19.306;2022-10-12T07:20:15;97023.34;;;10.04;100.00
47274;BME280;33007;49.082;19.306;2022-10-12T07:22:41;97008.53;;;9.96;100.00
47274;BME280;33007;49.082;19.306;2022-10-12T07:25:08;97024.66;;;10.12;100.00
47274;BME280;33007;49.082;19.306;2022-10-12T07:27:34;97023.22;;;10.20;100.00
47274;BME280;33007;49.082;19.306;2022-10-12T07:30:00;97015.97;;;10.17;100.00
47274;BME280;33007;49.082;19.306;2022-10-12T07:32:26;97002.38;;;10.17;100.00
47274;BME280;33007;49.082;19.306;2022-10-12T07:34:51;97008.13;;;10.19;100.00
47274;BME280;33007;49.082;19.306;2022-10-12T07:37:17;96994.34;;;10.14;100.00
47274;BME280;33007;49.082;19.306;2022-10-12T07:39:42;97012.78;;;10.32;100.00
47274;BME280;33007;49.082;19.306;2022-10-12T07:42:08;97014.28;;;10.33;99.97
47274;BME280;33007;49.082;19.306;2022-10-12T07:44:34;97011.91;;;10.35;99.54
47274;BME280;33007;49.082;19.306;2022-10-12T07:47:00;96994.53;;;10.32;99.77
47274;BME280;33007;49.082;19.306;2022-10-12T07:49:26;96996.03;;;10.33;99.06
47274;BME280;33007;49.082;19.306;2022-10-12T07:51:52;96994.41;;;10.36;98.05
47274;BME280;33007;49.082;19.306;2022-10-12T07:54:17;96989.09;;;10.32;98.94
47274;BME280;33007;49.082;19.306;2022-10-12T07:56:43;96996.03;;;10.33;98.12
47274;BME280;33007;49.082;19.306;2022-10-12T07:59:09;97003.31;;;10.36;98.73
47274;BME280;33007;49.082;19.306;2022-10-12T08:01:34;96975.84;;;10.21;97.91
47274;BME280;33007;49.082;19.306;2022-10-12T08:04:00;97022.59;;;10.51;97.43
47274;BME280;33007;49.082;19.306;2022-10-12T08:06:29;96993.66;;;10.35;97.49
47274;BME280;33007;49.082;19.306;2022-10-12T08:08:56;97018.56;;;10.56;97.71
47274;BME280;33007;49.082;19.306;2022-10-12T08:11:22;96977.03;;;10.33;96.84
47274;BME280;33007;49.082;19.306;2022-10-12T08:13:48;96991.63;;;10.48;97.05
47274;BME280;33007;49.082;19.306;2022-10-12T08:16:16;97013.69;;;10.72;97.23
47274;BME280;33007;49.082;19.306;2022-10-12T08:18:42;97021.84;;;10.72;96.63
47274;BME280;33007;49.082;19.306;2022-10-12T08:21:10;97020.66;;;10.73;97.19
47274;BME280;33007;49.082;19.306;2022-10-12T08:23:36;97013.25;;;10.74;96.83
47274;BME280;33007;49.082;19.306;2022-10-12T08:26:03;96994.50;;;10.67;96.47
47274;BME280;33007;49.082;19.306;2022-10-12T08:28:29;97022.69;;;10.82;95.91
47274;BME280;33007;49.082;19.306;2022-10-12T08:30:55;97001.94;;;10.75;96.71
47274;BME280;33007;49.082;19.306;2022-10-12T08:33:21;97001.69;;;10.83;96.72
47274;BME280;33007;49.082;19.306;2022-10-12T08:35:50;97003.09;;;10.87;95.63
47274;BME280;33007;49.082;19.306;2022-10-12T08:38:16;96985.41;;;10.92;95.72
47274;BME280;33007;49.082;19.306;2022-10-12T08:40:50;97008.16;;;11.07;95.14
47274;BME280;33007;49.082;19.306;2022-10-12T08:43:44;96996.81;;;10.99;93.02
47274;BME280;33007;49.082;19.306;2022-10-12T08:46:12;96996.09;;;11.08;91.78
47274;BME280;33007;49.082;19.306;2022-10-12T08:49:00;96990.41;;;11.15;92.66
47274;BME280;33007;49.082;19.306;2022-10-12T08:51:30;96989.19;;;11.16;93.51
47274;BME280;33007;49.082;19.306;2022-10-12T08:54:03;97014.81;;;11.37;91.72
47274;BME280;33007;49.082;19.306;2022-10-12T08:56:30;96998.31;;;11.32;92.74
47274;BME280;33007;49.082;19.306;2022-10-12T08:58:56;96986.81;;;11.27;92.12
47274;BME280;33007;49.082;19.306;2022-10-12T09:01:38;96991.66;;;11.33;91.93
47274;BME280;33007;49.082;19.306;2022-10-12T09:12:28;97005.38;;;11.60;93.05
47274;BME280;33007;49.082;19.306;2022-10-12T09:15:10;97006.00;;;11.64;91.58
47274;BME280;33007;49.082;19.306;2022-10-12T09:17:40;96985.09;;;11.52;90.51
47274;BME280;33007;49.082;19.306;2022-10-12T09:20:46;97004.34;;;11.67;91.53
47274;BME280;33007;49.082;19.306;2022-10-12T09:25:41;97008.00;;;11.73;89.97
47274;BME280;33007;49.082;19.306;2022-10-12T09:28:41;96991.97;;;11.75;90.81
47274;BME280;33007;49.082;19.306;2022-10-12T09:33:59;96993.06;;;11.87;89.27
47274;BME280;33007;49.082;19.306;2022-10-12T09:36:28;97003.09;;;11.99;88.73
47274;BME280;33007;49.082;19.306;2022-10-12T09:38:57;96990.22;;;11.90;87.02
47274;BME280;33007;49.082;19.306;2022-10-12T09:41:36;96993.22;;;11.92;87.08
47274;BME280;33007;49.082;19.306;2022-10-12T09:44:05;96995.19;;;11.92;87.08
47274;BME280;33007;49.082;19.306;2022-10-12T09:46:53;97000.81;;;12.06;88.13
47274;BME280;33007;49.082;19.306;2022-10-12T09:49:19;96986.91;;;11.95;85.54
47274;BME280;33007;49.082;19.306;2022-10-12T09:51:45;96979.50;;;11.96;87.70
47274;BME280;33007;49.082;19.306;2022-10-12T09:54:17;96981.78;;;12.06;86.52
47274;BME280;33007;49.082;19.306;2022-10-12T09:56:50;96991.75;;;12.19;86.11
47274;BME280;33007;49.082;19.306;2022-10-12T10:04:39;97002.22;;;12.48;85.56
47274;BME280;33007;49.082;19.306;2022-10-12T10:07:30;97002.06;;;12.61;85.88
47274;BME280;33007;49.082;19.306;2022-10-12T10:12:30;96987.22;;;12.71;85.16
47274;BME280;33007;49.082;19.306;2022-10-12T10:14:56;96997.16;;;12.92;85.09
47274;BME280;33007;49.082;19.306;2022-10-12T10:17:28;96982.22;;;12.69;84.66
47274;BME280;33007;49.082;19.306;2022-10-12T10:19:57;96980.53;;;12.72;83.74
47274;BME280;33007;49.082;19.306;2022-10-12T10:22:25;96990.84;;;12.77;83.72
47274;BME280;33007;49.082;19.306;2022-10-12T10:24:53;96992.78;;;12.85;83.54
47274;BME280;33007;49.082;19.306;2022-10-12T10:30:27;96981.13;;;12.85;84.11
47274;BME280;33007;49.082;19.306;2022-10-12T10:33:11;97002.16;;;12.94;82.47
47274;BME280;33007;49.082;19.306;2022-10-12T10:35:38;96980.25;;;12.79;82.49
47274;BME280;33007;49.082;19.306;2022-10-12T10:38:04;96973.84;;;12.91;82.42
47274;BME280;33007;49.082;19.306;2022-10-12T10:40:32;96978.06;;;13.10;81.57
47274;BME280;33007;49.082;19.306;2022-10-12T10:43:02;96979.50;;;13.21;81.16
47274;BME280;33007;49.082;19.306;2022-10-12T10:45:36;96983.75;;;13.31;81.60
47274;BME280;33007;49.082;19.306;2022-10-12T10:48:07;96954.66;;;13.37;80.20
47274;BME280;33007;49.082;19.306;2022-10-12T10:50:38;96971.16;;;13.67;80.48
47274;BME280;33007;49.082;19.306;2022-10-12T10:56:07;96967.16;;;13.77;77.16
47274;BME280;33007;49.082;19.306;2022-10-12T10:58:44;96967.41;;;13.88;78.34
47274;BME280;33007;49.082;19.306;2022-10-12T11:01:30;96961.47;;;13.89;77.75
47274;BME280;33007;49.082;19.306;2022-10-12T11:04:16;96956.06;;;14.04;78.10
47274;BME280;33007;49.082;19.306;2022-10-12T11:06:51;96950.22;;;13.97;76.78
47274;BME280;33007;49.082;19.306;2022-10-12T11:09:22;96954.09;;;14.05;76.39
47274;BME280;33007;49.082;19.306;2022-10-12T11:12:22;96947.38;;;13.91;77.12
47274;BME280;33007;49.082;19.306;2022-10-12T11:14:52;96935.06;;;13.96;76.78
47274;BME280;33007;49.082;19.306;2022-10-12T11:17:31;96936.50;;;13.82;77.13
47274;BME280;33007;49.082;19.306;2022-10-12T11:20:19;96937.41;;;14.03;77.04
47274;BME280;33007;49.082;19.306;2022-10-12T11:22:53;96936.25;;;14.19;76.08
47274;BME280;33007;49.082;19.306;2022-10-12T11:25:33;96925.78;;;14.17;77.46
47274;BME280;33007;49.082;19.306;2022-10-12T11:28:05;96933.44;;;14.28;76.47
47274;BME280;33007;49.082;19.306;2022-10-12T11:30:37;96920.06;;;14.30;76.82
47274;BME280;33007;49.082;19.306;2022-10-12T11:33:11;96932.59;;;14.36;76.71
47274;BME280;33007;49.082;19.306;2022-10-12T11:35:44;96913.47;;;14.36;75.70
47274;BME280;33007;49.082;19.306;2022-10-12T11:38:30;96947.06;;;14.52;73.68
47274;BME280;33007;49.082;19.306;2022-10-12T11:41:38;96921.88;;;14.48;73.28
47274;BME280;33007;49.082;19.306;2022-10-12T11:46:52;96935.84;;;14.79;74.99
47274;BME280;33007;49.082;19.306;2022-10-12T11:52:44;96923.41;;;14.93;74.55
47274;BME280;33007;49.082;19.306;2022-10-12T11:58:25;96874.78;;;14.82;72.84
47274;BME280;33007;49.082;19.306;2022-10-12T12:06:50;96908.84;;;15.52;71.82
47274;BME280;33007;49.082;19.306;2022-10-12T12:11:47;96882.16;;;15.46;72.17
47274;BME280;33007;49.082;19.306;2022-10-12T12:17:13;96897.59;;;15.85;71.63
47274;BME280;33007;49.082;19.306;2022-10-12T12:22:51;96884.13;;;15.81;69.05
47274;BME280;33007;49.082;19.306;2022-10-12T12:25:28;96886.16;;;15.86;69.54
47274;BME280;33007;49.082;19.306;2022-10-12T12:28:05;96875.91;;;15.81;67.65
47274;BME280;33007;49.082;19.306;2022-10-12T12:30:41;96887.41;;;15.85;68.46
47274;BME280;33007;49.082;19.306;2022-10-12T12:36:05;96883.03;;;15.73;69.95
47274;BME280;33007;49.082;19.306;2022-10-12T12:38:37;96877.25;;;15.71;70.29
47274;BME280;33007;49.082;19.306;2022-10-12T12:41:10;96882.34;;;15.78;70.08
47274;BME280;33007;49.082;19.306;2022-10-12T12:43:39;96878.31;;;15.94;69.24
47274;BME280;33007;49.082;19.306;2022-10-12T12:46:15;96854.63;;;15.70;69.23
47274;BME280;33007;49.082;19.306;2022-10-12T12:53:47;96859.34;;;15.70;70.36
47274;BME280;33007;49.082;19.306;2022-10-12T12:56:48;96864.81;;;15.90;69.14
47274;BME280;33007;49.082;19.306;2022-10-12T13:05:24;96867.16;;;15.77;70.17
47274;BME280;33007;49.082;19.306;2022-10-12T13:08:45;96847.91;;;15.51;70.40
47274;BME280;33007;49.082;19.306;2022-10-12T13:11:36;96859.53;;;15.46;72.04
47274;BME280;33007;49.082;19.306;2022-10-12T13:14:13;96864.38;;;15.57;71.89
47274;BME280;33007;49.082;19.306;2022-10-12T13:19:32;96833.94;;;15.29;71.49
47274;BME280;33007;49.082;19.306;2022-10-12T13:22:03;96849.97;;;15.21;72.53
47274;BME280;33007;49.082;19.306;2022-10-12T13:27:40;96848.22;;;15.18;71.79
47274;BME280;33007;49.082;19.306;2022-10-12T13:35:42;96831.53;;;15.01;68.42
47274;BME280;33007;49.082;19.306;2022-10-12T13:40:47;96813.28;;;14.92;73.66
47274;BME280;33007;49.082;19.306;2022-10-12T13:43:52;96821.94;;;14.91;74.23
47274;BME280;33007;49.082;19.306;2022-10-12T13:46:50;96817.50;;;14.93;74.43
47274;BME280;33007;49.082;19.306;2022-10-12T13:49:31;96814.31;;;14.80;75.48
47274;BME280;33007;49.082;19.306;2022-10-12T13:52:15;96806.25;;;14.71;74.82
47274;BME280;33007;49.082;19.306;2022-10-12T13:54:47;96824.25;;;14.78;75.37
47274;BME280;33007;49.082;19.306;2022-10-12T14:02:33;96807.41;;;14.50;77.20
47274;BME280;33007;49.082;19.306;2022-10-12T14:05:00;96805.69;;;14.37;77.19
47274;BME280;33007;49.082;19.306;2022-10-12T14:07:30;96809.72;;;14.42;77.43
47274;BME280;33007;49.082;19.306;2022-10-12T14:10:00;96824.25;;;14.48;77.59
47274;BME280;33007;49.082;19.306;2022-10-12T14:12:28;96798.63;;;14.46;78.05
47274;BME280;33007;49.082;19.306;2022-10-12T14:14:57;96795.88;;;14.46;75.59
47274;BME280;33007;49.082;19.306;2022-10-12T14:17:23;96805.03;;;14.42;78.39
47274;BME280;33007;49.082;19.306;2022-10-12T14:19:51;96809.63;;;14.36;77.79
47274;BME280;33007;49.082;19.306;2022-10-12T14:24:48;96808.22;;;14.26;79.71
47274;BME280;33007;49.082;19.306;2022-10-12T14:27:23;96785.44;;;14.14;79.93
47274;BME280;33007;49.082;19.306;2022-10-12T14:29:54;96796.34;;;14.00;80.29
47274;BME280;33007;49.082;19.306;2022-10-12T14:34:47;96804.53;;;14.00;82.34
47274;BME280;33007;49.082;19.306;2022-10-12T14:39:40;96782.19;;;13.72;82.86
47274;BME280;33007;49.082;19.306;2022-10-12T14:44:45;96788.66;;;13.59;84.03
47274;BME280;33007;49.082;19.306;2022-10-12T14:47:22;96790.81;;;13.55;85.48
47274;BME280;33007;49.082;19.306;2022-10-12T14:49:54;96809.00;;;13.58;85.30
47274;BME280;33007;49.082;19.306;2022-10-12T14:52:26;96805.59;;;13.49;86.37
47274;BME280;33007;49.082;19.306;2022-10-12T14:54:55;96793.75;;;13.28;85.95
47274;BME280;33007;49.082;19.306;2022-10-12T14:57:22;96805.53;;;13.34;86.54
47274;BME280;33007;49.082;19.306;2022-10-12T14:59:48;96810.13;;;13.28;86.38
47274;BME280;33007;49.082;19.306;2022-10-12T15:04:42;96795.28;;;12.96;86.41
47274;BME280;33007;49.082;19.306;2022-10-12T15:07:32;96802.50;;;12.99;86.26
47274;BME280;33007;49.082;19.306;2022-10-12T15:09:59;96818.31;;;12.95;86.81
47274;BME280;33007;49.082;19.306;2022-10-12T15:12:26;96798.78;;;12.87;85.74
47274;BME280;33007;49.082;19.306;2022-10-12T15:14:55;96813.81;;;12.82;86.71
47274;BME280;33007;49.082;19.306;2022-10-12T15:17:21;96790.38;;;12.76;83.95
47274;BME280;33007;49.082;19.306;2022-10-12T15:19:48;96816.09;;;12.84;80.00
47274;BME280;33007;49.082;19.306;2022-10-12T15:22:22;96808.47;;;12.88;81.13
47274;BME280;33007;49.082;19.306;2022-10-12T15:24:50;96817.41;;;12.89;79.20
47274;BME280;33007;49.082;19.306;2022-10-12T15:27:16;96794.09;;;12.54;79.16
47274;BME280;33007;49.082;19.306;2022-10-12T15:29:42;96799.81;;;12.56;81.16
47274;BME280;33007;49.082;19.306;2022-10-12T15:32:13;96825.28;;;12.53;81.45
47274;BME280;33007;49.082;19.306;2022-10-12T15:34:39;96819.47;;;12.18;84.33
47274;BME280;33007;49.082;19.306;2022-10-12T15:37:19;96821.75;;;12.01;85.48
47274;BME280;33007;49.082;19.306;2022-10-12T15:39:44;96818.75;;;11.90;85.68
47274;BME280;33007;49.082;19.306;2022-10-12T15:42:18;96804.69;;;11.83;85.63
47274;BME280;33007;49.082;19.306;2022-10-12T15:44:59;96807.84;;;11.72;85.56
47274;BME280;33007;49.082;19.306;2022-10-12T15:47:37;96829.47;;;11.85;85.76
47274;BME280;33007;49.082;19.306;2022-10-12T15:50:03;96820.38;;;11.69;84.57
47274;BME280;33007;49.082;19.306;2022-10-12T15:52:29;96804.38;;;11.62;84.48
47274;BME280;33007;49.082;19.306;2022-10-12T15:54:54;96811.47;;;11.50;84.26
47274;BME280;33007;49.082;19.306;2022-10-12T15:57:20;96807.09;;;11.35;85.09
47274;BME280;33007;49.082;19.306;2022-10-12T15:59:45;96839.88;;;11.49;85.72
47274;BME280;33007;49.082;19.306;2022-10-12T16:02:13;96812.59;;;11.13;85.98
47274;BME280;33007;49.082;19.306;2022-10-12T16:04:38;96818.34;;;11.06;86.30
47274;BME280;33007;49.082;19.306;2022-10-12T16:07:04;96841.47;;;11.10;87.04
47274;BME280;33007;49.082;19.306;2022-10-12T16:09:29;96823.75;;;10.96;86.37
47274;BME280;33007;49.082;19.306;2022-10-12T16:11:55;96825.06;;;10.83;86.79
47274;BME280;33007;49.082;19.306;2022-10-12T16:14:20;96830.16;;;10.71;87.86
47274;BME280;33007;49.082;19.306;2022-10-12T16:16:47;96817.28;;;10.63;88.65
47274;BME280;33007;49.082;19.306;2022-10-12T16:19:13;96822.25;;;10.55;88.07
47274;BME280;33007;49.082;19.306;2022-10-12T16:21:38;96836.72;;;10.52;87.85
47274;BME280;33007;49.082;19.306;2022-10-12T16:24:04;96844.41;;;10.54;88.76
47274;BME280;33007;49.082;19.306;2022-10-12T16:26:29;96834.94;;;10.58;88.75
47274;BME280;33007;49.082;19.306;2022-10-12T16:28:55;96797.09;;;10.11;88.94
47274;BME280;33007;49.082;19.306;2022-10-12T16:31:20;96835.84;;;10.33;89.44
47274;BME280;33007;49.082;19.306;2022-10-12T16:33:46;96846.84;;;10.30;89.61
47274;BME280;33007;49.082;19.306;2022-10-12T16:36:14;96834.03;;;10.08;90.44
47274;BME280;33007;49.082;19.306;2022-10-12T16:38:41;96849.03;;;10.00;90.70
47274;BME280;33007;49.082;19.306;2022-10-12T16:41:12;96853.63;;;9.90;90.43
47274;BME280;33007;49.082;19.306;2022-10-12T16:43:38;96847.22;;;9.75;91.46
47274;BME280;33007;49.082;19.306;2022-10-12T16:46:04;96852.06;;;9.80;91.87
47274;BME280;33007;49.082;19.306;2022-10-12T16:48:32;96847.88;;;9.66;92.14
47274;BME280;33007;49.082;19.306;2022-10-12T16:50:58;96871.94;;;9.77;92.28
47274;BME280;33007;49.082;19.306;2022-10-12T16:53:24;96856.31;;;9.68;91.58
47274;BME280;33007;49.082;19.306;2022-10-12T16:55:50;96859.94;;;9.53;92.81
47274;BME280;33007;49.082;19.306;2022-10-12T16:58:16;96830.53;;;9.29;93.76
47274;BME280;33007;49.082;19.306;2022-10-12T17:00:42;96854.31;;;9.47;93.58
47274;BME280;33007;49.082;19.306;2022-10-12T17:03:08;96866.47;;;9.42;93.25
47274;BME280;33007;49.082;19.306;2022-10-12T17:05:34;96872.03;;;9.39;94.78
47274;BME280;33007;49.082;19.306;2022-10-12T17:08:00;96864.13;;;9.32;94.75
47274;BME280;33007;49.082;19.306;2022-10-12T17:10:38;96856.13;;;9.28;94.00
47274;BME280;33007;49.082;19.306;2022-10-12T17:13:04;96853.09;;;9.13;94.75
47274;BME280;33007;49.082;19.306;2022-10-12T17:15:29;96877.91;;;9.25;94.39
47274;BME280;33007;49.082;19.306;2022-10-12T17:17:54;96870.44;;;9.03;95.26
47274;BME280;33007;49.082;19.306;2022-10-12T17:20:22;96866.13;;;9.06;94.34
47274;BME280;33007;49.082;19.306;2022-10-12T17:22:48;96860.47;;;8.87;96.35
47274;BME280;33007;49.082;19.306;2022-10-12T17:25:13;96856.38;;;8.70;97.16
47274;BME280;33007;49.082;19.306;2022-10-12T17:27:39;96859.97;;;8.80;95.02
47274;BME280;33007;49.082;19.306;2022-10-12T17:30:05;96893.22;;;8.80;95.74
47274;BME280;33007;49.082;19.306;2022-10-12T17:32:30;96869.78;;;8.61;96.56
47274;BME280;33007;49.082;19.306;2022-10-12T17:35:01;96892.25;;;8.74;96.63
47274;BME280;33007;49.082;19.306;2022-10-12T17:37:27;96881.59;;;8.67;95.51
47274;BME280;33007;49.082;19.306;2022-10-12T17:39:52;96862.84;;;8.47;96.68
47274;BME280;33007;49.082;19.306;2022-10-12T17:42:18;96865.66;;;8.44;97.35
47274;BME280;33007;49.082;19.306;2022-10-12T17:44:46;96897.09;;;8.66;95.78
47274;BME280;33007;49.082;19.306;2022-10-12T17:47:11;96887.22;;;8.47;96.64
47274;BME280;33007;49.082;19.306;2022-10-12T17:49:37;96873.06;;;8.27;96.49
47274;BME280;33007;49.082;19.306;2022-10-12T17:52:03;96892.94;;;8.36;96.97
47274;BME280;33007;49.082;19.306;2022-10-12T17:54:29;96893.97;;;8.26;97.52
47274;BME280;33007;49.082;19.306;2022-10-12T17:56:55;96895.91;;;8.26;97.39
47274;BME280;33007;49.082;19.306;2022-10-12T17:59:21;96889.63;;;8.29;97.27
47274;BME280;33007;49.082;19.306;2022-10-12T18:01:47;96894.34;;;8.12;97.29
47274;BME280;33007;49.082;19.306;2022-10-12T18:04:13;96899.56;;;8.19;96.70
47274;BME280;33007;49.082;19.306;2022-10-12T18:06:39;96900.94;;;8.11;97.34
47274;BME280;33007;49.082;19.306;2022-10-12T18:09:06;96881.09;;;8.01;96.47
47274;BME280;33007;49.082;19.306;2022-10-12T18:11:32;96891.09;;;8.04;96.32
47274;BME280;33007;49.082;19.306;2022-10-12T18:13:57;96877.50;;;7.92;95.84
47274;BME280;33007;49.082;19.306;2022-10-12T18:16:29;96910.94;;;7.98;96.54
47274;BME280;33007;49.082;19.306;2022-10-12T18:18:57;96913.53;;;7.88;97.03
47274;BME280;33007;49.082;19.306;2022-10-12T18:21:24;96901.44;;;7.77;97.20
47274;BME280;33007;49.082;19.306;2022-10-12T18:23:50;96902.06;;;7.68;97.59
47274;BME280;33007;49.082;19.306;2022-10-12T18:26:17;96916.91;;;7.76;98.07
47274;BME280;33007;49.082;19.306;2022-10-12T18:28:49;96923.69;;;7.68;97.93
47274;BME280;33007;49.082;19.306;2022-10-12T18:31:23;96903.59;;;7.53;98.46
47274;BME280;33007;49.082;19.306;2022-10-12T18:33:50;96909.53;;;7.48;99.09
47274;BME280;33007;49.082;19.306;2022-10-12T18:36:17;96916.69;;;7.54;98.76
47274;BME280;33007;49.082;19.306;2022-10-12T18:38:42;96902.59;;;7.47;98.61
47274;BME280;33007;49.082;19.306;2022-10-12T18:41:14;96917.88;;;7.53;97.93
47274;BME280;33007;49.082;19.306;2022-10-12T18:43:40;96921.91;;;7.45;97.66
47274;BME280;33007;49.082;19.306;2022-10-12T18:46:09;96928.25;;;7.55;97.41
47274;BME280;33007;49.082;19.306;2022-10-12T18:48:36;96934.34;;;7.59;97.73
47274;BME280;33007;49.082;19.306;2022-10-12T18:51:06;96932.31;;;7.47;97.13
47274;BME280;33007;49.082;19.306;2022-10-12T18:53:33;96923.97;;;7.41;98.58
47274;BME280;33007;49.082;19.306;2022-10-12T18:56:03;96934.78;;;7.57;97.87
47274;BME280;33007;49.082;19.306;2022-10-12T18:58:29;96931.72;;;7.39;96.91
47274;BME280;33007;49.082;19.306;2022-10-12T19:00:55;96923.19;;;7.24;98.00
47274;BME280;33007;49.082;19.306;2022-10-12T19:03:20;96923.19;;;7.24;97.93
47274;BME280;33007;49.082;19.306;2022-10-12T19:05:46;96927.94;;;7.20;99.08
47274;BME280;33007;49.082;19.306;2022-10-12T19:08:11;96930.13;;;7.25;98.15
47274;BME280;33007;49.082;19.306;2022-10-12T19:10:40;96917.94;;;7.01;97.44
47274;BME280;33007;49.082;19.306;2022-10-12T19:13:06;96943.72;;;7.22;97.44
47274;BME280;33007;49.082;19.306;2022-10-12T19:15:35;96941.31;;;7.07;98.36
47274;BME280;33007;49.082;19.306;2022-10-12T19:18:00;96918.59;;;6.89;98.22
47274;BME280;33007;49.082;19.306;2022-10-12T19:20:26;96944.44;;;7.06;98.24
47274;BME280;33007;49.082;19.306;2022-10-12T19:22:52;96942.97;;;6.85;98.41
47274;BME280;33007;49.082;19.306;2022-10-12T19:25:17;96937.72;;;6.78;99.20
47274;BME280;33007;49.082;19.306;2022-10-12T19:27:43;96961.31;;;6.94;99.30
47274;BME280;33007;49.082;19.306;2022-10-12T19:30:09;96958.38;;;7.04;98.60
47274;BME280;33007;49.082;19.306;2022-10-12T19:32:34;96955.16;;;6.93;98.57
47274;BME280;33007;49.082;19.306;2022-10-12T19:35:00;96951.50;;;6.83;98.63
47274;BME280;33007;49.082;19.306;2022-10-12T19:37:26;96935.94;;;6.71;99.69
47274;BME280;33007;49.082;19.306;2022-10-12T19:39:51;96922.69;;;6.61;99.22
47274;BME280;33007;49.082;19.306;2022-10-12T19:42:17;96953.50;;;6.79;98.72
47274;BME280;33007;49.082;19.306;2022-10-12T19:44:42;96964.63;;;6.81;98.88
47274;BME280;33007;49.082;19.306;2022-10-12T19:47:08;96961.66;;;6.76;98.68
47274;BME280;33007;49.082;19.306;2022-10-12T19:49:34;96970.53;;;6.76;99.42